Ceuta Jet — 5BKM2 — position and weather

sailwx.info

Track history (hours):
 
Tides and Currents Weather Stations Pressure Air Temp Water Temp Dewpoint Dewpoint Depression Visibility Wind Speed Wind Dir Waves Ship Positions

Ceuta Jet

Last reported at 2017-Oct-18 19:56 UTC. Time now 2017-Oct-19 02:06 UTC.
Position N 36°08' W 005°26'.

Length 60 m; draft 2.4 m.

Type: High speed craft. MMSI: 212561000.

Date/timePositionNaut miles runAvg speedWind from/ knotsBaromVisibWave heightAir tempDewpointWater temp
2017-Oct-18 19:56N 36°08' W 005°26'715.6
2017-Oct-18 19:30N 36°03' W 005°21'917.8
2017-Oct-18 19:00N 35°54' W 005°19'0 0.0
2017-Oct-18 18:30N 35°54' W 005°19'918.2
2017-Oct-18 18:01N 36°02' W 005°22'7 5.8
2017-Oct-18 16:49N 36°09' W 005°26'621.3
2017-Oct-18 16:31N 36°03' W 005°22'1019.5
2017-Oct-18 16:01N 35°54' W 005°19'0 0.0
2017-Oct-18 15:31N 35°54' W 005°19'1020.2
2017-Oct-18 15:00N 36°04' W 005°22'6 5.5
2017-Oct-18 13:59N 36°08' W 005°26'817.4
2017-Oct-18 13:31N 36°01' W 005°21'714.8
2017-Oct-18 13:00N 35°54' W 005°19'0 0.0
2017-Oct-18 12:31N 35°54' W 005°19'1020.7
2017-Oct-18 12:01N 36°04' W 005°23'6 5.1
2017-Oct-18 10:55N 36°09' W 005°26'920.9
2017-Oct-18 10:30N 36°01' W 005°21'714.7
2017-Oct-18 10:01N 35°54' W 005°19'1 1.3
2017-Oct-18 09:31N 35°54' W 005°19'15 9.2
2017-Oct-18 07:50N 36°09' W 005°25'824.7
2017-Oct-18 07:31N 36°01' W 005°21'714.5
2017-Oct-18 07:00N 35°54' W 005°19'0 0.2
2017-Oct-18 06:30N 35°54' W 005°19'1223.3
2017-Oct-18 06:01N 36°05' W 005°23'4 0.4
2017-Oct-17 19:48N 36°09' W 005°26'620.2
2017-Oct-17 19:29N 36°03' W 005°22'1020.1
2017-Oct-17 19:00N 35°54' W 005°19'0 0.0
2017-Oct-17 18:30N 35°54' W 005°19'918.9
2017-Oct-17 18:00N 36°03' W 005°22'1 0.7
2017-Oct-17 16:33N 36°04' W 005°22'228.5
2017-Oct-17 16:30N 36°02' W 005°21'917.9
2017-Oct-17 16:00N 35°54' W 005°19'0 0.3
2017-Oct-17 15:31N 35°54' W 005°19'9 4.8
2017-Oct-17 13:39N 36°02' W 005°22'428.3
2017-Oct-17 13:31N 35°59' W 005°21'510.2
2017-Oct-17 13:00N 35°54' W 005°19'0 0.8
2017-Oct-17 12:31N 35°54' W 005°19'10 4.9
2017-Oct-17 10:31N 36°03' W 005°22'128.2
2017-Oct-17 10:30N 36°03' W 005°22'918.2
2017-Oct-17 10:01N 35°54' W 005°19'2 5.0
2017-Oct-17 09:31N 35°56' W 005°20'6 3.1
2017-Oct-17 07:37N 36°02' W 005°22'324.0
2017-Oct-17 07:31N 35°59' W 005°21'611.1
2017-Oct-17 07:00N 35°54' W 005°19'0 0.5
2017-Oct-17 06:31N 35°54' W 005°19'1518.4
2017-Oct-17 05:41N 36°08' W 005°26'0 0.2
2017-Oct-17 03:04N 36°08' W 005°26'0 0.0
2017-Oct-17 02:55N 36°08' W 005°26'0 0.0
2017-Oct-17 02:28N 36°08' W 005°26'0 0.0
2017-Oct-17 01:39N 36°08' W 005°26'0 0.0
2017-Oct-17 01:20N 36°08' W 005°26'0 0.0
2017-Oct-17 00:52N 36°08' W 005°26'6 1.1
2017-Oct-16 19:31N 36°03' W 005°22'127.8
2017-Oct-16 19:30N 36°03' W 005°21'918.6
2017-Oct-16 19:00N 35°54' W 005°19'1 1.3
2017-Oct-16 18:31N 35°54' W 005°19'1223.9
2017-Oct-16 18:00N 36°06' W 005°23'2 1.5
2017-Oct-16 16:31N 36°03' W 005°22'028.3
2017-Oct-16 16:30N 36°03' W 005°22'918.8
2017-Oct-16 16:00N 35°54' W 005°19'0 0.0
2017-Oct-16 15:30N 35°54' W 005°19'15 9.9
2017-Oct-16 13:58N 36°08' W 005°26'716.4
2017-Oct-16 13:30N 36°02' W 005°21'816.2
2017-Oct-16 13:00N 35°54' W 005°19'1 1.7
2017-Oct-16 12:31N 35°54' W 005°18'1510.7
2017-Oct-16 11:05N 36°08' W 005°26'716.7
2017-Oct-16 10:40N 36°02' W 005°21'426.2
2017-Oct-16 10:31N 35°58' W 005°19'5 9.0
2017-Oct-16 10:00N 35°54' W 005°19'0 0.2
2017-Oct-16 09:30N 35°54' W 005°19'15 9.8
2017-Oct-16 07:57N 36°08' W 005°26'716.4
2017-Oct-16 07:31N 36°02' W 005°21'816.6
2017-Oct-16 07:00N 35°54' W 005°19'0 0.1
2017-Oct-16 06:30N 35°54' W 005°19'16 2.0
2017-Oct-15 22:51N 36°08' W 005°26'618.2
2017-Oct-15 22:30N 36°03' W 005°22'918.8
2017-Oct-15 22:00N 35°54' W 005°19'2 3.1
2017-Oct-15 21:31N 35°55' W 005°18'1325.2
2017-Oct-15 20:59N 36°07' W 005°24'2 2.1
2017-Oct-15 20:03N 36°08' W 005°26'1 9.6
2017-Oct-15 19:58N 36°09' W 005°25'1226.1
2017-Oct-15 19:31N 35°58' W 005°20'4 8.5
2017-Oct-15 19:00N 35°54' W 005°19'3 5.6
2017-Oct-15 18:31N 35°57' W 005°20'5 2.7
2017-Oct-15 16:33N 36°02' W 005°22'126.0
2017-Oct-15 16:30N 36°01' W 005°21'714.4
2017-Oct-15 16:01N 35°54' W 005°19'1 1.2
2017-Oct-15 15:30N 35°54' W 005°19'15 9.9
2017-Oct-15 13:57N 36°08' W 005°26'715.8
2017-Oct-15 13:31N 36°02' W 005°22'816.9
2017-Oct-15 13:00N 35°54' W 005°19'2 3.8
2017-Oct-15 12:31N 35°56' W 005°19'7 3.3
2017-Oct-15 10:27N 36°02' W 005°21'919.5
2017-Oct-15 10:00N 35°54' W 005°19'0 0.0
2017-Oct-15 09:31N 35°54' W 005°19'15 9.2
2017-Oct-15 07:52N 36°08' W 005°26'515.0
2017-Oct-15 07:30N 36°03' W 005°22'1020.0
2017-Oct-15 07:00N 35°54' W 005°19'0 0.0
2017-Oct-15 06:31N 35°54' W 005°19'15 1.4
2017-Oct-14 19:53N 36°08' W 005°26'616.6
2017-Oct-14 19:31N 36°03' W 005°22'918.2
2017-Oct-14 19:00N 35°54' W 005°19'0 0.0
2017-Oct-14 18:30N 35°54' W 005°19'8 4.2
2017-Oct-14 16:31N 36°02' W 005°22'028.8
2017-Oct-14 16:31N 36°01' W 005°21'815.8
2017-Oct-14 16:00N 35°54' W 005°19'0 0.0
2017-Oct-14 15:30N 35°54' W 005°19'918.3
2017-Oct-14 15:01N 36°03' W 005°22'6 5.8
2017-Oct-14 13:57N 36°08' W 005°26'512.3
2017-Oct-14 13:31N 36°03' W 005°22'1019.8
2017-Oct-14 13:00N 35°54' W 005°19'0 0.0
2017-Oct-14 12:30N 35°54' W 005°19'8 3.7
2017-Oct-14 10:29N 36°01' W 005°22'816.1
2017-Oct-14 10:01N 35°54' W 005°19'0 0.0
2017-Oct-14 09:30N 35°54' W 005°19'1121.3
2017-Oct-14 09:01N 36°04' W 005°22'3 1.9
2017-Oct-14 07:30N 36°01' W 005°22'816.0
2017-Oct-14 07:00N 35°54' W 005°19'0 0.0
2017-Oct-14 06:30N 35°54' W 005°19'1020.2
2017-Oct-14 06:00N 36°04' W 005°22'1 0.1
2017-Oct-13 19:34N 36°05' W 005°23'229.4
2017-Oct-13 19:30N 36°03' W 005°21'919.1
2017-Oct-13 19:00N 35°54' W 005°19'0 0.0
2017-Oct-13 18:30N 35°54' W 005°19'9 4.3
2017-Oct-13 16:31N 36°02' W 005°21'129.6
2017-Oct-13 16:30N 36°01' W 005°21'815.9
2017-Oct-13 16:01N 35°54' W 005°19'0 0.0
2017-Oct-13 15:30N 35°54' W 005°19'7 3.7
2017-Oct-13 13:30N 36°01' W 005°21'715.3
2017-Oct-13 13:00N 35°54' W 005°19'0 0.0
2017-Oct-13 12:30N 35°54' W 005°19'7 3.6
2017-Oct-13 10:28N 36°01' W 005°21'715.6
2017-Oct-13 10:00N 35°54' W 005°19'0 0.0
2017-Oct-13 09:31N 35°54' W 005°19'15 9.7
2017-Oct-13 07:56N 36°08' W 005°26'715.6
2017-Oct-13 07:30N 36°03' W 005°21'917.9
2017-Oct-13 07:00N 35°54' W 005°19'0 0.0
2017-Oct-13 06:30N 35°54' W 005°19'1222.9
2017-Oct-13 06:00N 36°05' W 005°23'4 0.7
2017-Oct-13 00:02N 36°08' W 005°26'0 0.0
2017-Oct-12 23:53N 36°08' W 005°26'0 0.0
2017-Oct-12 23:28N 36°08' W 005°26'0 0.0
2017-Oct-12 22:46N 36°08' W 005°26'0 0.1
2017-Oct-12 20:03N 36°08' W 005°26'0 9.6
2017-Oct-12 20:00N 36°08' W 005°26'1020.0
2017-Oct-12 19:30N 35°59' W 005°20'611.6
2017-Oct-12 19:01N 35°54' W 005°19'0 0.0
2017-Oct-12 18:31N 35°54' W 005°19'1020.3
2017-Oct-12 18:01N 36°04' W 005°22'5 4.6
2017-Oct-12 16:49N 36°08' W 005°26'819.9
2017-Oct-12 16:25N 36°01' W 005°21'818.9
2017-Oct-12 16:00N 35°54' W 005°19'2 4.0
2017-Oct-12 15:31N 35°56' W 005°19'13 8.8
2017-Oct-12 14:00N 36°08' W 005°26'815.4
2017-Oct-12 13:31N 36°01' W 005°21'815.6
2017-Oct-12 13:00N 35°54' W 005°19'4 8.1
2017-Oct-12 12:30N 35°58' W 005°20'12 8.0
2017-Oct-12 11:01N 36°09' W 005°26'010.0
2017-Oct-12 10:59N 36°09' W 005°26'1122.9
2017-Oct-12 10:31N 35°59' W 005°21'510.5
2017-Oct-12 10:01N 35°54' W 005°19'1 1.7
2017-Oct-12 09:31N 35°54' W 005°19'9 5.5
2017-Oct-12 07:50N 36°03' W 005°23'825.0
2017-Oct-12 07:31N 35°55' W 005°19'2 3.4
2017-Oct-12 07:00N 35°54' W 005°19'0 0.0
2017-Oct-12 06:30N 35°54' W 005°19'1518.8
2017-Oct-12 05:41N 36°08' W 005°26'0 0.0
2017-Oct-11 19:54N 36°08' W 005°26'820.8
2017-Oct-11 19:30N 36°01' W 005°21'715.0
2017-Oct-11 19:00N 35°54' W 005°19'1 1.5
2017-Oct-11 18:31N 35°54' W 005°19'8 4.4
2017-Oct-11 16:37N 36°02' W 005°21'7 0.3
2017-Oct-10 19:53N 36°08' W 005°26'614.5
2017-Oct-10 19:30N 36°03' W 005°22'1019.7
2017-Oct-10 19:00N 35°54' W 005°19'0 0.0
2017-Oct-10 18:30N 35°54' W 005°19'7 3.7
2017-Oct-10 16:32N 36°01' W 005°22'128.2
2017-Oct-10 16:30N 35°60' W 005°21'612.6
2017-Oct-10 16:00N 35°54' W 005°19'0 0.0
2017-Oct-10 15:30N 35°54' W 005°19'1019.0
2017-Oct-10 15:00N 36°03' W 005°22'1 0.8
2017-Oct-10 13:30N 36°02' W 005°21'817.2
2017-Oct-10 13:01N 35°54' W 005°19'0 0.0
2017-Oct-10 12:30N 35°54' W 005°19'1120.9
2017-Oct-10 12:00N 36°04' W 005°23'5 4.4
2017-Oct-10 10:55N 36°08' W 005°26'716.8
2017-Oct-10 10:30N 36°02' W 005°22'816.9
2017-Oct-10 10:00N 35°54' W 005°19'0 0.0
2017-Oct-10 09:30N 35°54' W 005°19'  
Track history (hours):
 
Tides and Currents Weather Stations Pressure Air Temp Water Temp Dewpoint Dewpoint Depression Visibility Wind Speed Wind Dir Waves Ship Positions

Ceuta Jet

Last reported at 2017-Oct-18 19:56 UTC. Time now 2017-Oct-19 02:06 UTC.
Position N 36°08' W 005°26'.

Length 60 m; draft 2.4 m.

Type: High speed craft. MMSI: 212561000.

Date/timePositionNaut miles runAvg speedWind from/ knotsBaromVisibWave heightAir tempDewpointWater temp
2017-Oct-18 19:56N 36°08' W 005°26'715.6
2017-Oct-18 19:30N 36°03' W 005°21'917.8
2017-Oct-18 19:00N 35°54' W 005°19'0 0.0
2017-Oct-18 18:30N 35°54' W 005°19'918.2
2017-Oct-18 18:01N 36°02' W 005°22'7 5.8
2017-Oct-18 16:49N 36°09' W 005°26'621.3
2017-Oct-18 16:31N 36°03' W 005°22'1019.5
2017-Oct-18 16:01N 35°54' W 005°19'0 0.0
2017-Oct-18 15:31N 35°54' W 005°19'1020.2
2017-Oct-18 15:00N 36°04' W 005°22'6 5.5
2017-Oct-18 13:59N 36°08' W 005°26'817.4
2017-Oct-18 13:31N 36°01' W 005°21'714.8
2017-Oct-18 13:00N 35°54' W 005°19'0 0.0
2017-Oct-18 12:31N 35°54' W 005°19'1020.7
2017-Oct-18 12:01N 36°04' W 005°23'6 5.1
2017-Oct-18 10:55N 36°09' W 005°26'920.9
2017-Oct-18 10:30N 36°01' W 005°21'714.7
2017-Oct-18 10:01N 35°54' W 005°19'1 1.3
2017-Oct-18 09:31N 35°54' W 005°19'15 9.2
2017-Oct-18 07:50N 36°09' W 005°25'824.7
2017-Oct-18 07:31N 36°01' W 005°21'714.5
2017-Oct-18 07:00N 35°54' W 005°19'0 0.2
2017-Oct-18 06:30N 35°54' W 005°19'1223.3
2017-Oct-18 06:01N 36°05' W 005°23'4 0.4
2017-Oct-17 19:48N 36°09' W 005°26'620.2
2017-Oct-17 19:29N 36°03' W 005°22'1020.1
2017-Oct-17 19:00N 35°54' W 005°19'0 0.0
2017-Oct-17 18:30N 35°54' W 005°19'918.9
2017-Oct-17 18:00N 36°03' W 005°22'1 0.7
2017-Oct-17 16:33N 36°04' W 005°22'228.5
2017-Oct-17 16:30N 36°02' W 005°21'917.9
2017-Oct-17 16:00N 35°54' W 005°19'0 0.3
2017-Oct-17 15:31N 35°54' W 005°19'9 4.8
2017-Oct-17 13:39N 36°02' W 005°22'428.3
2017-Oct-17 13:31N 35°59' W 005°21'510.2
2017-Oct-17 13:00N 35°54' W 005°19'0 0.8
2017-Oct-17 12:31N 35°54' W 005°19'10 4.9
2017-Oct-17 10:31N 36°03' W 005°22'128.2
2017-Oct-17 10:30N 36°03' W 005°22'918.2
2017-Oct-17 10:01N 35°54' W 005°19'2 5.0
2017-Oct-17 09:31N 35°56' W 005°20'6 3.1
2017-Oct-17 07:37N 36°02' W 005°22'324.0
2017-Oct-17 07:31N 35°59' W 005°21'611.1
2017-Oct-17 07:00N 35°54' W 005°19'0 0.5
2017-Oct-17 06:31N 35°54' W 005°19'1518.4
2017-Oct-17 05:41N 36°08' W 005°26'0 0.2
2017-Oct-17 03:04N 36°08' W 005°26'0 0.0
2017-Oct-17 02:55N 36°08' W 005°26'0 0.0
2017-Oct-17 02:28N 36°08' W 005°26'0 0.0
2017-Oct-17 01:39N 36°08' W 005°26'0 0.0
2017-Oct-17 01:20N 36°08' W 005°26'0 0.0
2017-Oct-17 00:52N 36°08' W 005°26'6 1.1
2017-Oct-16 19:31N 36°03' W 005°22'127.8
2017-Oct-16 19:30N 36°03' W 005°21'918.6
2017-Oct-16 19:00N 35°54' W 005°19'1 1.3
2017-Oct-16 18:31N 35°54' W 005°19'1223.9
2017-Oct-16 18:00N 36°06' W 005°23'2 1.5
2017-Oct-16 16:31N 36°03' W 005°22'028.3
2017-Oct-16 16:30N 36°03' W 005°22'918.8
2017-Oct-16 16:00N 35°54' W 005°19'0 0.0
2017-Oct-16 15:30N 35°54' W 005°19'15 9.9
2017-Oct-16 13:58N 36°08' W 005°26'716.4
2017-Oct-16 13:30N 36°02' W 005°21'816.2
2017-Oct-16 13:00N 35°54' W 005°19'1 1.7
2017-Oct-16 12:31N 35°54' W 005°18'1510.7
2017-Oct-16 11:05N 36°08' W 005°26'716.7
2017-Oct-16 10:40N 36°02' W 005°21'426.2
2017-Oct-16 10:31N 35°58' W 005°19'5 9.0
2017-Oct-16 10:00N 35°54' W 005°19'0 0.2
2017-Oct-16 09:30N 35°54' W 005°19'15 9.8
2017-Oct-16 07:57N 36°08' W 005°26'716.4
2017-Oct-16 07:31N 36°02' W 005°21'816.6
2017-Oct-16 07:00N 35°54' W 005°19'0 0.1
2017-Oct-16 06:30N 35°54' W 005°19'16 2.0
2017-Oct-15 22:51N 36°08' W 005°26'618.2
2017-Oct-15 22:30N 36°03' W 005°22'918.8
2017-Oct-15 22:00N 35°54' W 005°19'2 3.1
2017-Oct-15 21:31N 35°55' W 005°18'1325.2
2017-Oct-15 20:59N 36°07' W 005°24'2 2.1
2017-Oct-15 20:03N 36°08' W 005°26'1 9.6
2017-Oct-15 19:58N 36°09' W 005°25'1226.1
2017-Oct-15 19:31N 35°58' W 005°20'4 8.5
2017-Oct-15 19:00N 35°54' W 005°19'3 5.6
2017-Oct-15 18:31N 35°57' W 005°20'5 2.7
2017-Oct-15 16:33N 36°02' W 005°22'126.0
2017-Oct-15 16:30N 36°01' W 005°21'714.4
2017-Oct-15 16:01N 35°54' W 005°19'1 1.2
2017-Oct-15 15:30N 35°54' W 005°19'15 9.9
2017-Oct-15 13:57N 36°08' W 005°26'715.8
2017-Oct-15 13:31N 36°02' W 005°22'816.9
2017-Oct-15 13:00N 35°54' W 005°19'2 3.8
2017-Oct-15 12:31N 35°56' W 005°19'7 3.3
2017-Oct-15 10:27N 36°02' W 005°21'919.5
2017-Oct-15 10:00N 35°54' W 005°19'0 0.0
2017-Oct-15 09:31N 35°54' W 005°19'15 9.2
2017-Oct-15 07:52N 36°08' W 005°26'515.0
2017-Oct-15 07:30N 36°03' W 005°22'1020.0
2017-Oct-15 07:00N 35°54' W 005°19'0 0.0
2017-Oct-15 06:31N 35°54' W 005°19'15 1.4
2017-Oct-14 19:53N 36°08' W 005°26'616.6
2017-Oct-14 19:31N 36°03' W 005°22'918.2
2017-Oct-14 19:00N 35°54' W 005°19'0 0.0
2017-Oct-14 18:30N 35°54' W 005°19'8 4.2
2017-Oct-14 16:31N 36°02' W 005°22'028.8
2017-Oct-14 16:31N 36°01' W 005°21'815.8
2017-Oct-14 16:00N 35°54' W 005°19'0 0.0
2017-Oct-14 15:30N 35°54' W 005°19'918.3
2017-Oct-14 15:01N 36°03' W 005°22'6 5.8
2017-Oct-14 13:57N 36°08' W 005°26'512.3
2017-Oct-14 13:31N 36°03' W 005°22'1019.8
2017-Oct-14 13:00N 35°54' W 005°19'0 0.0
2017-Oct-14 12:30N 35°54' W 005°19'8 3.7
2017-Oct-14 10:29N 36°01' W 005°22'816.1
2017-Oct-14 10:01N 35°54' W 005°19'0 0.0
2017-Oct-14 09:30N 35°54' W 005°19'1121.3
2017-Oct-14 09:01N 36°04' W 005°22'3 1.9
2017-Oct-14 07:30N 36°01' W 005°22'816.0
2017-Oct-14 07:00N 35°54' W 005°19'0 0.0
2017-Oct-14 06:30N 35°54' W 005°19'1020.2
2017-Oct-14 06:00N 36°04' W 005°22'1 0.1
2017-Oct-13 19:34N 36°05' W 005°23'229.4
2017-Oct-13 19:30N 36°03' W 005°21'919.1
2017-Oct-13 19:00N 35°54' W 005°19'0 0.0
2017-Oct-13 18:30N 35°54' W 005°19'9 4.3
2017-Oct-13 16:31N 36°02' W 005°21'129.6
2017-Oct-13 16:30N 36°01' W 005°21'815.9
2017-Oct-13 16:01N 35°54' W 005°19'0 0.0
2017-Oct-13 15:30N 35°54' W 005°19'7 3.7
2017-Oct-13 13:30N 36°01' W 005°21'715.3
2017-Oct-13 13:00N 35°54' W 005°19'0 0.0
2017-Oct-13 12:30N 35°54' W 005°19'7 3.6
2017-Oct-13 10:28N 36°01' W 005°21'715.6
2017-Oct-13 10:00N 35°54' W 005°19'0 0.0
2017-Oct-13 09:31N 35°54' W 005°19'15 9.7
2017-Oct-13 07:56N 36°08' W 005°26'715.6
2017-Oct-13 07:30N 36°03' W 005°21'917.9
2017-Oct-13 07:00N 35°54' W 005°19'0 0.0
2017-Oct-13 06:30N 35°54' W 005°19'1222.9
2017-Oct-13 06:00N 36°05' W 005°23'4 0.7
2017-Oct-13 00:02N 36°08' W 005°26'0 0.0
2017-Oct-12 23:53N 36°08' W 005°26'0 0.0
2017-Oct-12 23:28N 36°08' W 005°26'0 0.0
2017-Oct-12 22:46N 36°08' W 005°26'0 0.1
2017-Oct-12 20:03N 36°08' W 005°26'0 9.6
2017-Oct-12 20:00N 36°08' W 005°26'1020.0
2017-Oct-12 19:30N 35°59' W 005°20'611.6
2017-Oct-12 19:01N 35°54' W 005°19'0 0.0
2017-Oct-12 18:31N 35°54' W 005°19'1020.3
2017-Oct-12 18:01N 36°04' W 005°22'5 4.6
2017-Oct-12 16:49N 36°08' W 005°26'819.9
2017-Oct-12 16:25N 36°01' W 005°21'818.9
2017-Oct-12 16:00N 35°54' W 005°19'2 4.0
2017-Oct-12 15:31N 35°56' W 005°19'13 8.8
2017-Oct-12 14:00N 36°08' W 005°26'815.4
2017-Oct-12 13:31N 36°01' W 005°21'815.6
2017-Oct-12 13:00N 35°54' W 005°19'4 8.1
2017-Oct-12 12:30N 35°58' W 005°20'12 8.0
2017-Oct-12 11:01N 36°09' W 005°26'010.0
2017-Oct-12 10:59N 36°09' W 005°26'1122.9
2017-Oct-12 10:31N 35°59' W 005°21'510.5
2017-Oct-12 10:01N 35°54' W 005°19'1 1.7
2017-Oct-12 09:31N 35°54' W 005°19'9 5.5
2017-Oct-12 07:50N 36°03' W 005°23'825.0
2017-Oct-12 07:31N 35°55' W 005°19'2 3.4
2017-Oct-12 07:00N 35°54' W 005°19'0 0.0
2017-Oct-12 06:30N 35°54' W 005°19'1518.8
2017-Oct-12 05:41N 36°08' W 005°26'0 0.0
2017-Oct-11 19:54N 36°08' W 005°26'820.8
2017-Oct-11 19:30N 36°01' W 005°21'715.0
2017-Oct-11 19:00N 35°54' W 005°19'1 1.5
2017-Oct-11 18:31N 35°54' W 005°19'8 4.4
2017-Oct-11 16:37N 36°02' W 005°21'7 0.3
2017-Oct-10 19:53N 36°08' W 005°26'614.5
2017-Oct-10 19:30N 36°03' W 005°22'1019.7
2017-Oct-10 19:00N 35°54' W 005°19'0 0.0
2017-Oct-10 18:30N 35°54' W 005°19'7 3.7
2017-Oct-10 16:32N 36°01' W 005°22'128.2
2017-Oct-10 16:30N 35°60' W 005°21'612.6
2017-Oct-10 16:00N 35°54' W 005°19'0 0.0
2017-Oct-10 15:30N 35°54' W 005°19'1019.0
2017-Oct-10 15:00N 36°03' W 005°22'1 0.8
2017-Oct-10 13:30N 36°02' W 005°21'817.2
2017-Oct-10 13:01N 35°54' W 005°19'0 0.0
2017-Oct-10 12:30N 35°54' W 005°19'1120.9
2017-Oct-10 12:00N 36°04' W 005°23'5 4.4
2017-Oct-10 10:55N 36°08' W 005°26'716.8
2017-Oct-10 10:30N 36°02' W 005°22'816.9
2017-Oct-10 10:00N 35°54' W 005°19'0 0.0
2017-Oct-10 09:30N 35°54' W 005°19'  

Dump ship's entire track history